Adak, AK (99546)

8:33 AM HDT on September 04, 2015 (GMT -0900)
Adak | | Change Station
CLOSE
Current Station
Airport
Location: Adak,
Elevation: 13 ft
Nearby Weather Stations

Elev 13 ft 51.88 °N, 176.65 °W | Updated 17 minutes ago

Overcast
Overcast
50 °F
Feels Like 50 °F
N
8
Wind Variable Wind from West

Today
High -- | Low -- °F
--% Chance of Precip.
Yesterday
High -- | Low -- °F
Precip. -- in
8:03 AM 9:26 PM
Waning Gibbous, 57% visible
Pressure 30.03 in
Visibility 10.0 miles
Clouds Few 2500 ft
Scattered Clouds 3100 ft
Overcast 3900 ft
Dew Point 43 °F
Humidity 76%
Rainfall 0.00 in
Snow Depth Not available.
UV 0 out of 12
Pollen Not available.
Air Quality Not available.
Flu Activity Not available.
METAR PADK 041716Z 28007KT 10SM FEW025 SCT031 OVC039 10/06 A3003 RMK AO1
Pressure 30.03 in
Visibility 10.0 miles
Clouds Few 2500 ft
Scattered Clouds 3100 ft
Overcast 3900 ft
Dew Point 43 °F
Humidity 76%
Rainfall 0.00 in
Snow Depth Not available.
UV 0 out of 12
Pollen Not available.
Air Quality Not available.
Flu Activity Not available.
METAR PADK 041716Z 28007KT 10SM FEW025 SCT031 OVC039 10/06 A3003 RMK AO1

10-Day Weather Forecast

×

Almanac

Astronomy

Sep. 04, 2015 Rise Set
Actual Time
Civil Twilight
Nautical Twilight
Astronomical Twilight
Moon
Length of Visible Light
Length of Day
Tomorrow will be .
, % of the Moon is Illuminated

Today's Extremes

State Highs State Lows

Community

WunderPhotos

Upload Photos

1,852,244 photos uploaded!

WunderBlogs® & News

Nearby

Air Quality

  Air Quality AQ Index Pollutant
Not available.

Snow Depth

Station Depth Elevation

Earthquake Activity

City Distance Mag. Time & Date
Minimum magnitude displayed is 2.5.

Coastal Water Temperatures

Place Temperature

Stations

Nearby Weather Stations

Station Location Temp. Windchill Dew Point Humidity Wind Precip. Elev Updated Type